Аэропорт: Пашковский. Краснодар

ICAO: URKK

METAR:
2019/03/26 13:00
URKK 261300Z 16004MPS 130V190 CAVOK 14/00 Q1012 R23L/CLRD70 NOSIG RMK QFE756
METAR:
2019/03/26 12:21
TAF URKK 261051Z 2612/2712 15003G08MPS CAVOK 
     FM262100 34003G08MPS 4000 BR SCT011